Time;durP1;ratioP1;P1;durP2;ratioP2;P2;SDS_P1;SDS_P2;PMS_P1;PMS_P2;Temp;Humidity;BMP_temperature;BMP_pressure;BME280_temperature;BME280_humidity;BME280_pressure;Samples;Min_cycle;Max_cycle;Signal;HPM_P1;HPM_P2
2023/07/02 00:01:44;;;;;;;21.80;8.40;;;16.30;99.90;;;;;;5027486;28;20412;-57
2023/07/02 00:04:13;;;;;;;25.20;9.52;;;16.20;99.90;;;;;;5008647;28;20042;-57
2023/07/02 00:06:40;;;;;;;24.00;8.88;;;16.20;99.90;;;;;;5029475;28;20033;-57
2023/07/02 00:09:12;;;;;;;21.15;8.63;;;16.20;99.90;;;;;;5025384;28;20262;-58
2023/07/02 00:11:38;;;;;;;21.40;9.25;;;16.20;99.90;;;;;;5012300;28;20356;-57
2023/07/02 00:14:05;;;;;;;23.73;8.32;;;16.10;99.90;;;;;;5028164;28;20048;-56
2023/07/02 00:16:31;;;;;;;24.67;9.50;;;16.10;99.90;;;;;;5026706;28;20055;-56
2023/07/02 00:18:57;;;;;;;22.88;9.10;;;16.10;99.90;;;;;;5040896;28;20432;-57
2023/07/02 00:21:27;;;;;;;24.42;9.30;;;16.10;99.90;;;;;;5026044;28;20322;-58
2023/07/02 00:23:56;;;;;;;23.25;9.27;;;16.00;99.90;;;;;;5042277;28;20041;-56
2023/07/02 00:26:26;;;;;;;26.13;9.95;;;16.00;99.90;;;;;;5026747;28;20040;-57
2023/07/02 00:28:54;;;;;;;28.50;9.57;;;16.00;99.90;;;;;;5023879;28;20055;-57
2023/07/02 00:31:21;;;;;;;26.25;10.00;;;15.90;99.90;;;;;;5009242;28;20396;-56
2023/07/02 00:33:46;;;;;;;21.88;9.90;;;15.90;99.90;;;;;;5020432;28;20041;-57
2023/07/02 00:36:14;;;;;;;24.40;8.50;;;15.90;99.90;;;;;;5009121;28;20059;-57
2023/07/02 00:38:47;;;;;;;19.25;8.68;;;15.90;99.90;;;;;;5025001;28;20072;-56
2023/07/02 00:41:13;;;;;;;22.95;8.88;;;15.90;99.90;;;;;;5015435;28;20104;-57
2023/07/02 00:43:43;;;;;;;23.65;9.23;;;15.80;99.90;;;;;;5021778;28;20485;-58
2023/07/02 00:46:12;;;;;;;23.52;9.32;;;15.80;99.90;;;;;;5024956;28;20041;-57
2023/07/02 00:48:39;;;;;;;29.58;9.98;;;15.90;99.90;;;;;;5026576;28;20476;-57
2023/07/02 00:51:04;;;;;;;34.20;10.20;;;15.80;99.90;;;;;;5025432;28;20073;-58
2023/07/02 00:53:32;;;;;;;23.48;9.77;;;15.80;99.90;;;;;;5028745;28;20084;-57
2023/07/02 00:55:58;;;;;;;25.63;10.43;;;15.80;99.90;;;;;;5010349;28;20041;-57
2023/07/02 00:58:23;;;;;;;22.73;9.77;;;15.80;99.90;;;;;;5022674;28;20520;-57
2023/07/02 01:00:49;;;;;;;28.88;10.30;;;15.70;99.90;;;;;;5006224;28;20114;-57
2023/07/02 01:03:15;;;;;;;20.85;9.27;;;15.70;99.90;;;;;;5044429;28;20511;-57
2023/07/02 01:05:41;;;;;;;26.98;9.23;;;15.70;99.90;;;;;;5021302;28;20037;-57
2023/07/02 01:08:07;;;;;;;31.23;10.77;;;15.70;99.90;;;;;;5027146;28;20041;-57
2023/07/02 01:10:35;;;;;;;29.45;10.65;;;15.60;99.90;;;;;;5011181;28;20048;-57
2023/07/02 01:13:07;;;;;;;25.15;9.88;;;15.60;99.90;;;;;;5009606;28;20122;-57
2023/07/02 01:15:33;;;;;;;22.90;9.50;;;15.60;99.90;;;;;;5020801;28;20053;-57
2023/07/02 01:17:59;;;;;;;26.00;9.98;;;15.60;99.90;;;;;;5027081;28;20037;-57
2023/07/02 01:20:26;;;;;;;23.08;8.32;;;15.60;99.90;;;;;;5040374;28;20152;-57
2023/07/02 01:22:53;;;;;;;26.20;9.80;;;15.50;99.90;;;;;;5029649;28;20049;-57
2023/07/02 01:25:18;;;;;;;27.45;9.90;;;15.50;99.90;;;;;;5025456;28;20095;-54
2023/07/02 01:27:44;;;;;;;22.17;10.02;;;15.50;99.90;;;;;;5023147;28;20062;-58
2023/07/02 01:30:10;;;;;;;24.98;9.27;;;15.50;99.90;;;;;;5028248;28;20037;-58
2023/07/02 01:32:37;;;;;;;24.13;9.57;;;15.50;99.90;;;;;;5012817;28;20041;-56
2023/07/02 01:35:03;;;;;;;23.65;9.27;;;15.50;99.90;;;;;;5009894;28;20107;-57
2023/07/02 01:37:36;;;;;;;27.48;9.93;;;15.50;99.90;;;;;;5030185;28;20045;-57
2023/07/02 01:40:05;;;;;;;25.23;9.32;;;15.50;99.90;;;;;;5046237;28;20116;-57
2023/07/02 01:42:32;;;;;;;24.25;9.60;;;15.50;99.90;;;;;;5021312;28;20041;-56
2023/07/02 01:44:58;;;;;;;24.02;9.30;;;15.40;99.90;;;;;;5020018;28;20551;-57
2023/07/02 01:47:23;;;;;;;22.45;9.65;;;15.40;99.90;;;;;;5011044;28;20071;-58
2023/07/02 01:49:50;;;;;;;23.55;10.25;;;15.40;99.90;;;;;;5042560;28;20048;-56
2023/07/02 01:52:16;;;;;;;22.38;9.48;;;15.40;99.90;;;;;;5026997;28;20103;-57
2023/07/02 01:54:42;;;;;;;22.40;9.68;;;15.40;99.90;;;;;;5025129;28;20079;-57
2023/07/02 01:57:08;;;;;;;28.88;9.65;;;15.30;99.90;;;;;;5032163;28;20040;-57
2023/07/02 01:59:34;;;;;;;31.80;10.23;;;15.30;99.90;;;;;;5030313;28;20029;-58
2023/07/02 02:02:00;;;;;;;23.38;9.23;;;15.30;99.90;;;;;;5046512;28;20033;-57
2023/07/02 02:04:25;;;;;;;28.70;10.48;;;15.30;99.90;;;;;;5026212;28;20504;-57
2023/07/02 02:06:52;;;;;;;29.23;10.07;;;15.30;99.90;;;;;;5028371;28;20044;-57
2023/07/02 02:09:17;;;;;;;26.55;9.85;;;15.30;99.90;;;;;;5009387;28;20047;-57
2023/07/02 02:11:47;;;;;;;25.00;9.32;;;15.30;99.90;;;;;;5028877;28;20033;-57
2023/07/02 02:14:13;;;;;;;29.05;9.02;;;15.30;99.90;;;;;;5020270;28;20069;-57
2023/07/02 02:16:39;;;;;;;21.83;8.38;;;15.30;99.90;;;;;;5021528;28;20083;-56
2023/07/02 02:19:05;;;;;;;28.60;9.45;;;15.20;99.90;;;;;;5009516;28;20032;-57
2023/07/02 02:21:31;;;;;;;25.80;9.85;;;15.20;99.90;;;;;;5030549;28;20056;-57
2023/07/02 02:23:57;;;;;;;23.75;10.05;;;15.20;99.90;;;;;;5026205;28;20038;-58
2023/07/02 02:26:23;;;;;;;25.00;9.48;;;15.20;99.90;;;;;;5013341;28;20036;-57
2023/07/02 02:28:49;;;;;;;22.13;9.15;;;15.20;99.90;;;;;;5024848;28;20523;-57
2023/07/02 02:31:17;;;;;;;27.20;9.38;;;15.10;99.90;;;;;;5026007;28;20045;-58
2023/07/02 02:33:43;;;;;;;24.90;8.80;;;15.10;99.90;;;;;;5008705;28;20045;-57
2023/07/02 02:36:09;;;;;;;25.65;9.65;;;15.10;99.90;;;;;;5030736;28;20087;-58
2023/07/02 02:38:37;;;;;;;27.13;9.85;;;15.10;99.90;;;;;;5012562;28;20519;-58
2023/07/02 02:41:02;;;;;;;29.17;10.98;;;15.00;99.90;;;;;;5023365;28;20400;-57
2023/07/02 02:43:28;;;;;;;24.73;9.00;;;15.00;99.90;;;;;;5024189;28;20048;-58
2023/07/02 02:45:54;;;;;;;25.08;10.05;;;14.90;99.90;;;;;;5031059;28;20492;-57
2023/07/02 02:48:22;;;;;;;30.55;10.25;;;14.90;99.90;;;;;;5024470;28;20420;-57
2023/07/02 02:50:47;;;;;;;26.23;10.15;;;14.90;99.90;;;;;;5025314;28;20053;-59
2023/07/02 02:53:13;;;;;;;25.58;10.40;;;14.90;99.90;;;;;;5004669;28;20127;-58
2023/07/02 02:55:39;;;;;;;23.38;9.02;;;14.90;99.90;;;;;;5023280;28;20049;-58
2023/07/02 02:58:05;;;;;;;26.73;9.63;;;14.90;99.90;;;;;;5020302;28;20094;-58
2023/07/02 03:00:30;;;;;;;22.00;8.25;;;14.90;99.90;;;;;;5028544;28;20491;-55
2023/07/02 03:02:56;;;;;;;23.80;9.15;;;14.90;99.90;;;;;;5026022;28;20049;-57
2023/07/02 03:05:22;;;;;;;29.75;10.05;;;14.90;99.90;;;;;;5027358;28;20080;-57
2023/07/02 03:07:49;;;;;;;25.17;9.05;;;15.00;99.90;;;;;;5028110;28;20454;-57
2023/07/02 03:10:14;;;;;;;31.95;10.30;;;15.00;99.90;;;;;;5023210;28;20044;-58
2023/07/02 03:12:40;;;;;;;21.10;8.48;;;14.90;99.90;;;;;;5005013;28;20045;-58
2023/07/02 03:15:06;;;;;;;22.42;8.60;;;14.90;99.90;;;;;;5031067;28;20124;-57
2023/07/02 03:17:32;;;;;;;18.33;8.40;;;14.90;99.90;;;;;;5029571;28;20455;-58
2023/07/02 03:19:58;;;;;;;29.20;8.85;;;15.00;99.90;;;;;;5029923;28;20044;-58
2023/07/02 03:22:24;;;;;;;22.48;8.57;;;15.00;99.90;;;;;;5031367;28;20044;-58
2023/07/02 03:24:49;;;;;;;22.98;8.02;;;15.00;99.90;;;;;;5011127;28;20052;-58
2023/07/02 03:27:15;;;;;;;23.40;9.15;;;15.00;99.90;;;;;;5017786;28;20045;-59
2023/07/02 03:29:41;;;;;;;21.48;8.98;;;15.00;99.90;;;;;;5022775;28;20049;-58
2023/07/02 03:32:07;;;;;;;25.63;9.43;;;15.10;99.90;;;;;;5022541;28;20068;-58
2023/07/02 03:34:33;;;;;;;23.85;8.43;;;15.20;99.90;;;;;;5024313;28;20076;-57
2023/07/02 03:36:58;;;;;;;25.25;8.10;;;15.20;99.90;;;;;;5026089;28;20084;-58
2023/07/02 03:39:24;;;;;;;22.08;8.70;;;15.20;99.90;;;;;;5008427;28;20037;-58
2023/07/02 03:41:50;;;;;;;25.52;8.52;;;15.30;99.90;;;;;;5026239;28;20049;-56
2023/07/02 03:44:15;;;;;;;19.80;8.23;;;15.30;99.90;;;;;;5046493;28;20072;-58
2023/07/02 03:46:41;;;;;;;27.25;8.30;;;15.30;99.90;;;;;;5008581;28;20454;-58
2023/07/02 03:49:07;;;;;;;25.20;8.57;;;15.30;99.90;;;;;;5029235;28;20111;-59
2023/07/02 03:51:32;;;;;;;25.02;8.52;;;15.30;99.90;;;;;;5033182;28;20041;-58
2023/07/02 03:53:59;;;;;;;21.38;9.10;;;15.40;99.90;;;;;;5028964;28;20045;-57
2023/07/02 03:56:24;;;;;;;28.25;9.07;;;15.40;99.90;;;;;;5026777;28;20107;-57
2023/07/02 03:58:50;;;;;;;24.35;8.80;;;15.40;99.90;;;;;;4992895;28;20037;-56
2023/07/02 04:01:16;;;;;;;21.50;8.25;;;15.40;99.90;;;;;;5023027;28;20216;-57
2023/07/02 04:03:52;;;;;;;25.40;8.48;;;15.50;99.90;;;;;;5020500;28;20041;-57
2023/07/02 04:06:18;;;;;;;24.52;8.93;;;15.50;99.90;;;;;;5025625;28;20079;-59
2023/07/02 04:08:44;;;;;;;22.63;8.20;;;15.50;99.90;;;;;;5021272;28;20451;-58
2023/07/02 04:11:11;;;;;;;16.23;6.85;;;15.40;99.90;;;;;;5019660;28;20038;-58
2023/07/02 04:13:37;;;;;;;20.55;8.05;;;15.30;99.90;;;;;;5043431;28;20052;-55
2023/07/02 04:16:03;;;;;;;21.83;6.80;;;15.30;99.90;;;;;;5027472;28;20504;-58
2023/07/02 04:18:29;;;;;;;21.88;8.02;;;15.30;99.90;;;;;;5032619;28;20044;-57
2023/07/02 04:20:55;;;;;;;20.58;7.35;;;15.30;99.90;;;;;;5046774;28;20040;-57
2023/07/02 04:23:21;;;;;;;14.63;6.35;;;15.30;99.90;;;;;;5024778;28;20069;-57
2023/07/02 04:25:47;;;;;;;19.15;6.35;;;15.30;99.90;;;;;;5021285;28;20068;-58
2023/07/02 04:28:13;;;;;;;14.82;6.43;;;15.30;99.90;;;;;;5026940;28;20041;-57
2023/07/02 04:30:39;;;;;;;19.23;6.40;;;15.30;99.90;;;;;;5026650;28;20442;-56
2023/07/02 04:33:05;;;;;;;16.65;6.05;;;15.30;99.90;;;;;;5025705;28;20128;-57
2023/07/02 04:35:32;;;;;;;22.60;6.88;;;15.30;99.90;;;;;;5025013;28;20049;-58
2023/07/02 04:37:58;;;;;;;16.75;5.55;;;15.30;99.90;;;;;;5026497;28;20441;-58
2023/07/02 04:40:24;;;;;;;16.75;6.05;;;15.30;99.90;;;;;;5024608;28;20119;-58
2023/07/02 04:42:57;;;;;;;18.33;6.22;;;15.30;99.90;;;;;;5044457;28;20188;-57
2023/07/02 04:45:24;;;;;;;11.45;5.63;;;15.40;99.90;;;;;;5019340;28;20068;-56
2023/07/02 04:47:51;;;;;;;19.52;6.40;;;15.50;99.90;;;;;;5026148;28;20044;-58
2023/07/02 04:50:17;;;;;;;17.95;5.90;;;15.50;99.90;;;;;;5023887;28;20041;-58
2023/07/02 04:52:43;;;;;;;14.80;6.28;;;15.50;99.90;;;;;;5023145;28;20087;-58
2023/07/02 04:55:09;;;;;;;18.92;5.93;;;15.50;99.90;;;;;;5025377;28;20068;-58
2023/07/02 04:57:35;;;;;;;17.35;5.88;;;15.50;99.90;;;;;;5037829;28;20123;-58
2023/07/02 05:00:03;;;;;;;17.25;6.28;;;15.50;99.90;;;;;;5005773;28;20531;-57
2023/07/02 05:02:29;;;;;;;20.67;7.57;;;15.50;99.90;;;;;;5028121;28;20033;-56
2023/07/02 05:04:55;;;;;;;15.98;5.90;;;15.50;99.90;;;;;;5027603;28;20037;-58
2023/07/02 05:07:20;;;;;;;16.98;6.78;;;15.50;99.90;;;;;;5023058;28;20118;-58
2023/07/02 05:09:48;;;;;;;13.52;5.95;;;15.60;99.90;;;;;;5027778;28;20045;-58
2023/07/02 05:12:14;;;;;;;16.25;6.47;;;15.70;99.90;;;;;;5027077;28;20576;-58
2023/07/02 05:14:40;;;;;;;18.17;6.80;;;15.70;99.90;;;;;;5013363;28;20256;-56
2023/07/02 05:17:05;;;;;;;19.92;6.07;;;15.70;99.90;;;;;;5028146;28;20048;-58
2023/07/02 05:19:31;;;;;;;20.90;6.70;;;15.80;99.90;;;;;;5021367;28;20180;-56
2023/07/02 05:21:57;;;;;;;13.93;5.82;;;15.70;99.90;;;;;;5029188;28;20404;-56
2023/07/02 05:24:22;;;;;;;15.55;6.00;;;15.70;99.90;;;;;;5029140;28;20045;-58
2023/07/02 05:26:50;;;;;;;17.05;6.35;;;15.60;99.90;;;;;;5029200;28;20128;-58
2023/07/02 05:29:16;;;;;;;17.38;6.65;;;15.60;99.90;;;;;;5026889;28;20049;-58
2023/07/02 05:31:42;;;;;;;21.77;6.90;;;15.60;99.90;;;;;;5030063;28;20033;-57
2023/07/02 05:34:07;;;;;;;25.10;8.30;;;15.60;99.90;;;;;;5010248;28;20064;-57
2023/07/02 05:36:34;;;;;;;17.08;6.90;;;15.60;99.90;;;;;;5011740;28;20041;-58
2023/07/02 05:39:00;;;;;;;21.80;7.65;;;15.70;99.90;;;;;;5029001;28;20046;-57
2023/07/02 05:41:30;;;;;;;18.70;6.75;;;15.60;99.90;;;;;;5043312;28;20479;-57
2023/07/02 05:43:57;;;;;;;23.63;7.00;;;15.60;99.90;;;;;;5030617;28;20197;-57
2023/07/02 05:46:22;;;;;;;23.00;6.90;;;15.50;99.90;;;;;;5014663;28;20045;-58
2023/07/02 05:48:48;;;;;;;19.98;6.85;;;15.70;99.90;;;;;;5028032;28;20092;-56
2023/07/02 05:51:19;;;;;;;16.02;5.90;;;15.80;99.90;;;;;;5025687;28;20037;-57
2023/07/02 05:53:45;;;;;;;15.90;6.13;;;15.80;99.90;;;;;;5030559;28;20492;-58
2023/07/02 05:56:10;;;;;;;18.17;6.85;;;16.00;99.90;;;;;;5029479;28;20069;-57
2023/07/02 05:58:36;;;;;;;13.57;5.75;;;16.10;99.90;;;;;;5019121;28;20480;-56
2023/07/02 06:01:02;;;;;;;17.30;6.18;;;16.20;99.90;;;;;;5026793;28;20076;-58
2023/07/02 06:03:27;;;;;;;16.42;5.93;;;16.40;99.90;;;;;;5011692;28;20477;-57
2023/07/02 06:05:53;;;;;;;15.52;5.70;;;16.50;99.90;;;;;;5045320;28;20041;-57
2023/07/02 06:08:19;;;;;;;13.55;4.50;;;16.50;99.90;;;;;;5034665;28;20037;-58
2023/07/02 06:10:47;;;;;;;13.88;4.38;;;16.40;99.90;;;;;;5011820;28;20048;-59
2023/07/02 06:13:12;;;;;;;12.32;3.95;;;16.40;99.90;;;;;;5034245;28;20049;-59
2023/07/02 06:15:38;;;;;;;9.98;3.92;;;16.40;99.90;;;;;;5030338;28;20111;-58
2023/07/02 06:18:04;;;;;;;14.02;4.40;;;16.50;99.90;;;;;;5011969;28;20056;-58
2023/07/02 06:20:30;;;;;;;14.05;4.70;;;16.50;99.90;;;;;;5011880;28;20040;-57
2023/07/02 06:22:55;;;;;;;14.20;4.00;;;16.50;99.90;;;;;;5028799;28;20045;-58
2023/07/02 06:25:21;;;;;;;12.35;4.30;;;16.40;99.90;;;;;;5019540;28;20048;-57
2023/07/02 06:27:47;;;;;;;15.00;4.30;;;16.50;99.90;;;;;;5036438;28;20504;-58
2023/07/02 06:30:13;;;;;;;12.35;3.70;;;16.40;99.90;;;;;;5011737;28;20041;-58
2023/07/02 06:32:39;;;;;;;14.88;4.30;;;16.50;99.90;;;;;;4987141;28;20049;-60
2023/07/02 06:35:08;;;;;;;15.55;4.43;;;16.50;99.90;;;;;;5028942;28;20120;-57
2023/07/02 06:37:34;;;;;;;18.52;4.45;;;16.50;99.90;;;;;;5027099;28;20044;-56
2023/07/02 06:40:00;;;;;;;12.35;4.10;;;16.50;99.90;;;;;;5030908;28;20037;-59
2023/07/02 06:42:26;;;;;;;16.20;4.43;;;16.60;99.90;;;;;;5011042;28;20033;-55
2023/07/02 06:44:51;;;;;;;17.33;4.35;;;16.70;99.90;;;;;;5036990;28;20040;-58
2023/07/02 06:47:17;;;;;;;16.23;4.97;;;16.80;99.90;;;;;;5011573;28;20049;-58
2023/07/02 06:49:43;;;;;;;18.40;4.72;;;16.80;99.90;;;;;;5029676;28;20052;-60
2023/07/02 06:52:09;;;;;;;15.82;5.07;;;16.70;99.90;;;;;;5028777;28;20063;-59
2023/07/02 06:54:35;;;;;;;14.32;3.88;;;16.80;99.90;;;;;;5021757;28;20087;-59
2023/07/02 06:57:01;;;;;;;17.80;3.70;;;16.90;99.90;;;;;;5031969;28;20155;-57
2023/07/02 06:59:27;;;;;;;15.68;4.28;;;16.90;99.90;;;;;;5022154;28;20048;-56
2023/07/02 07:01:52;;;;;;;13.60;4.00;;;16.90;99.90;;;;;;5019631;28;20041;-60
2023/07/02 07:04:18;;;;;;;15.63;4.00;;;17.00;99.90;;;;;;5022678;28;20053;-59
2023/07/02 07:06:44;;;;;;;16.50;4.40;;;17.10;99.90;;;;;;5009447;28;20037;-59
2023/07/02 07:09:10;;;;;;;11.43;4.28;;;16.90;99.90;;;;;;5048881;28;20095;-56
2023/07/02 07:11:35;;;;;;;14.15;4.20;;;16.70;99.90;;;;;;5029710;28;20041;-58
2023/07/02 07:14:01;;;;;;;16.85;4.38;;;16.60;99.90;;;;;;5025808;28;20052;-58
2023/07/02 07:16:27;;;;;;;15.20;4.00;;;16.80;99.90;;;;;;5025129;28;20064;-59
2023/07/02 07:18:53;;;;;;;14.65;4.20;;;17.00;99.90;;;;;;5011488;28;20064;-59
2023/07/02 07:21:19;;;;;;;15.77;3.92;;;17.30;99.90;;;;;;5030203;28;20081;-58
2023/07/02 07:23:44;;;;;;;18.63;4.95;;;17.30;99.90;;;;;;5028151;28;20120;-57
2023/07/02 07:26:10;;;;;;;11.02;3.90;;;17.00;99.90;;;;;;4998178;28;20040;-59
2023/07/02 07:28:36;;;;;;;19.20;5.03;;;17.10;99.90;;;;;;5026872;28;20037;-59
2023/07/02 07:31:02;;;;;;;11.63;4.57;;;17.30;99.90;;;;;;5012559;28;20036;-59
2023/07/02 07:33:27;;;;;;;13.88;4.95;;;17.30;99.90;;;;;;5026025;28;20037;-57
2023/07/02 07:35:53;;;;;;;12.40;4.10;;;17.20;99.90;;;;;;5023924;28;20037;-57
2023/07/02 07:38:19;;;;;;;12.63;4.32;;;17.20;99.90;;;;;;5032471;28;20036;-59
2023/07/02 07:40:45;;;;;;;12.23;4.03;;;17.20;99.90;;;;;;5028786;28;20088;-60
2023/07/02 07:43:11;;;;;;;12.25;4.28;;;17.20;99.90;;;;;;5026297;28;20048;-58
2023/07/02 07:45:37;;;;;;;12.68;4.57;;;17.00;99.90;;;;;;5032999;28;20045;-59
2023/07/02 07:48:04;;;;;;;13.80;4.22;;;16.90;99.90;;;;;;5030140;28;20147;-59
2023/07/02 07:50:30;;;;;;;16.50;4.72;;;17.00;99.90;;;;;;4992213;28;20512;-60
2023/07/02 07:52:55;;;;;;;17.15;4.88;;;17.00;99.90;;;;;;5041915;28;20080;-57
2023/07/02 07:55:21;;;;;;;12.27;4.05;;;17.00;99.90;;;;;;5027469;28;20514;-58
2023/07/02 07:57:47;;;;;;;13.68;4.68;;;17.10;99.90;;;;;;5027245;28;20072;-57
2023/07/02 08:00:13;;;;;;;17.42;5.07;;;17.10;99.90;;;;;;5028604;28;20036;-57
2023/07/02 08:02:39;;;;;;;12.52;4.45;;;17.00;99.90;;;;;;5027151;28;20582;-59
2023/07/02 08:05:06;;;;;;;16.17;5.45;;;17.00;99.90;;;;;;5041255;28;20116;-59
2023/07/02 08:07:32;;;;;;;14.35;4.72;;;17.00;99.90;;;;;;5047220;28;20103;-58
2023/07/02 08:09:58;;;;;;;18.83;5.30;;;17.00;99.90;;;;;;5022704;28;20037;-60
2023/07/02 08:12:24;;;;;;;14.32;5.47;;;16.80;99.90;;;;;;5045703;28;20555;-58
2023/07/02 08:14:50;;;;;;;15.68;4.68;;;16.70;99.90;;;;;;5014602;28;20033;-59
2023/07/02 08:17:15;;;;;;;16.67;5.90;;;16.70;99.90;;;;;;4991904;28;20510;-59
2023/07/02 08:19:41;;;;;;;13.35;5.60;;;16.70;99.90;;;;;;5010107;28;20199;-59
2023/07/02 08:22:07;;;;;;;17.27;5.40;;;16.70;99.90;;;;;;5029590;28;20048;-59
2023/07/02 08:24:33;;;;;;;19.33;5.47;;;16.90;99.90;;;;;;5047492;28;20072;-58
2023/07/02 08:27:01;;;;;;;14.07;4.88;;;16.90;99.90;;;;;;5022996;28;20056;-58
2023/07/02 08:29:26;;;;;;;20.35;5.32;;;16.90;99.90;;;;;;5023956;28;20068;-58
2023/07/02 08:31:52;;;;;;;11.27;4.50;;;17.00;99.90;;;;;;5025103;28;20080;-56
2023/07/02 08:34:18;;;;;;;13.50;3.90;;;17.20;99.90;;;;;;5016564;28;20051;-59
2023/07/02 08:36:44;;;;;;;15.57;4.70;;;17.10;99.90;;;;;;5026946;28;20132;-60
2023/07/02 08:39:10;;;;;;;15.88;5.00;;;17.20;99.90;;;;;;5027354;28;20096;-59
2023/07/02 08:41:47;;;;;;;10.90;4.53;;;17.10;99.90;;;;;;5027868;28;20096;-59
2023/07/02 08:44:14;;;;;;;13.48;4.00;;;17.30;99.90;;;;;;5025239;28;20048;-59
2023/07/02 08:46:41;;;;;;;15.70;4.38;;;17.60;99.90;;;;;;5010788;28;20048;-59
2023/07/02 08:49:07;;;;;;;13.48;4.18;;;17.70;99.90;;;;;;5027509;28;20110;-58
2023/07/02 08:51:33;;;;;;;16.15;5.07;;;17.80;99.90;;;;;;5027228;28;20087;-58
2023/07/02 08:53:59;;;;;;;13.70;4.15;;;18.00;99.90;;;;;;5029464;28;20534;-57
2023/07/02 08:56:26;;;;;;;11.20;4.20;;;18.10;99.90;;;;;;5025383;28;20080;-58
2023/07/02 08:58:52;;;;;;;8.52;3.33;;;18.10;99.70;;;;;;5034151;28;20065;-58
2023/07/02 09:01:18;;;;;;;13.13;3.38;;;18.00;99.20;;;;;;5029978;28;20052;-60
2023/07/02 09:03:44;;;;;;;14.45;4.68;;;18.00;99.60;;;;;;5029015;28;20609;-56
2023/07/02 09:06:11;;;;;;;14.30;3.42;;;18.00;99.60;;;;;;5005738;28;20046;-57
2023/07/02 09:08:37;;;;;;;13.02;3.88;;;18.00;99.60;;;;;;5023158;28;20037;-56
2023/07/02 09:11:10;;;;;;;11.15;3.95;;;18.20;99.60;;;;;;5008321;28;20099;-56
2023/07/02 09:14:02;;;;;;;12.95;3.63;;;18.30;98.60;;;;;;5033220;28;20040;-59
2023/07/02 09:16:33;;;;;;;10.57;3.22;;;18.30;98.40;;;;;;5018914;28;20083;-56
2023/07/02 09:19:04;;;;;;;11.45;3.50;;;18.30;98.60;;;;;;5051437;28;20040;-58
2023/07/02 09:21:46;;;;;;;12.63;3.58;;;18.40;98.40;;;;;;5049076;28;20098;-60
2023/07/02 09:24:20;;;;;;;14.02;4.18;;;18.50;99.20;;;;;;5034641;28;20563;-57
2023/07/02 09:26:54;;;;;;;13.13;4.30;;;18.80;99.30;;;;;;5008835;28;20460;-58
2023/07/02 09:29:33;;;;;;;12.70;3.75;;;18.90;98.60;;;;;;5040665;28;20044;-58
2023/07/02 09:32:00;;;;;;;11.15;3.22;;;19.00;98.40;;;;;;5028424;28;20107;-57
2023/07/02 09:34:35;;;;;;;8.18;3.42;;;19.20;98.00;;;;;;5035283;28;20100;-55
2023/07/02 09:37:03;;;;;;;12.10;3.60;;;18.60;96.90;;;;;;5031509;28;20051;-58
2023/07/02 09:39:30;;;;;;;13.35;4.65;;;18.40;97.60;;;;;;5024814;28;20088;-57
2023/07/02 09:41:57;;;;;;;11.82;3.75;;;18.60;97.80;;;;;;5024554;28;20071;-59
2023/07/02 09:44:30;;;;;;;15.68;4.68;;;18.50;97.80;;;;;;5029307;28;20515;-57
2023/07/02 09:47:07;;;;;;;12.18;3.72;;;18.40;97.40;;;;;;5034637;28;20118;-56
2023/07/02 09:49:38;;;;;;;14.77;4.22;;;18.50;97.80;;;;;;5023494;28;20055;-59
2023/07/02 09:52:08;;;;;;;17.08;4.15;;;18.30;98.00;;;;;;5030828;28;20033;-60
2023/07/02 09:54:35;;;;;;;12.85;4.95;;;18.00;98.00;;;;;;5032510;28;20275;-59
2023/07/02 09:57:01;;;;;;;11.18;3.60;;;18.00;97.90;;;;;;5026489;28;20447;-58
2023/07/02 09:59:27;;;;;;;11.75;3.90;;;18.00;98.60;;;;;;5033564;28;20083;-57
2023/07/02 10:01:54;;;;;;;14.55;3.95;;;18.00;99.10;;;;;;5030468;28;20539;-58
2023/07/02 10:04:23;;;;;;;15.35;4.47;;;17.90;99.30;;;;;;5008665;28;20048;-58
2023/07/02 10:06:56;;;;;;;12.00;4.15;;;18.10;99.70;;;;;;5034072;28;20045;-58
2023/07/02 10:09:38;;;;;;;11.52;3.90;;;18.30;99.60;;;;;;5026214;28;20055;-58
2023/07/02 10:12:20;;;;;;;13.02;4.53;;;18.40;98.70;;;;;;5036581;28;20454;-55
2023/07/02 10:14:47;;;;;;;9.70;3.85;;;18.80;98.80;;;;;;5022163;28;20063;-57
2023/07/02 10:17:32;;;;;;;15.95;4.45;;;18.80;98.50;;;;;;5033222;28;20041;-58
2023/07/02 10:20:11;;;;;;;15.50;4.40;;;18.60;98.10;;;;;;5027853;28;20503;-56
2023/07/02 10:22:53;;;;;;;14.38;4.15;;;18.40;98.40;;;;;;4995669;28;20091;-58
2023/07/02 10:25:27;;;;;;;15.13;4.63;;;18.60;98.80;;;;;;5034064;28;20115;-56
2023/07/02 10:27:52;;;;;;;17.63;4.57;;;18.50;98.10;;;;;;5029945;28;20161;-56
2023/07/02 10:30:18;;;;;;;12.40;4.30;;;18.40;98.60;;;;;;5043655;28;20052;-60
2023/07/02 10:32:44;;;;;;;11.23;4.72;;;18.30;98.80;;;;;;5028605;28;20029;-55
2023/07/02 10:35:15;;;;;;;17.45;4.40;;;18.20;98.50;;;;;;5027189;28;20053;-57
2023/07/02 10:37:41;;;;;;;12.10;3.85;;;18.00;98.50;;;;;;5028079;28;20048;-57
2023/07/02 10:40:07;;;;;;;14.02;5.18;;;17.90;99.20;;;;;;5025211;28;20037;-57
2023/07/02 10:42:36;;;;;;;9.52;3.35;;;18.20;99.10;;;;;;5030951;28;20091;-57
2023/07/02 10:45:02;;;;;;;9.18;3.47;;;18.30;99.00;;;;;;5027785;28;20074;-59
2023/07/02 10:47:29;;;;;;;10.60;3.03;;;18.60;99.00;;;;;;5021919;28;20069;-57
2023/07/02 10:49:55;;;;;;;9.52;2.58;;;18.40;98.10;;;;;;5027872;28;20044;-57
2023/07/02 10:52:20;;;;;;;9.20;3.20;;;18.50;96.60;;;;;;5026920;28;20098;-56
2023/07/02 10:54:47;;;;;;;7.63;2.90;;;18.50;97.00;;;;;;5026591;28;20037;-57
2023/07/02 10:57:16;;;;;;;8.30;3.38;;;18.50;97.50;;;;;;5021701;28;20041;-59
2023/07/02 10:59:42;;;;;;;9.35;3.25;;;18.20;97.70;;;;;;4989440;28;20037;-56
2023/07/02 11:02:09;;;;;;;13.68;3.72;;;18.50;97.50;;;;;;5029876;28;20040;-56
2023/07/02 11:04:36;;;;;;;10.75;3.28;;;18.80;97.60;;;;;;5023269;28;20431;-56
2023/07/02 11:07:01;;;;;;;15.98;4.20;;;19.10;97.10;;;;;;5029370;28;20112;-57
2023/07/02 11:09:27;;;;;;;10.73;3.05;;;19.00;97.50;;;;;;5028866;28;20515;-56
2023/07/02 11:11:58;;;;;;;8.57;3.10;;;18.90;97.20;;;;;;5018212;28;20354;-59
2023/07/02 11:14:35;;;;;;;7.95;2.88;;;18.90;97.20;;;;;;5027617;28;20116;-56
2023/07/02 11:17:05;;;;;;;8.95;3.28;;;18.90;97.50;;;;;;5029677;28;20499;-56
2023/07/02 11:19:31;;;;;;;11.07;3.42;;;18.60;97.40;;;;;;5022256;28;20096;-57
2023/07/02 11:21:58;;;;;;;9.55;3.22;;;18.50;97.30;;;;;;5021160;28;20481;-56
2023/07/02 11:24:32;;;;;;;13.45;3.60;;;18.30;97.20;;;;;;5027682;28;20087;-59
2023/07/02 11:27:00;;;;;;;12.50;3.10;;;18.30;97.60;;;;;;5026353;28;20552;-58
2023/07/02 11:29:25;;;;;;;8.88;3.28;;;18.60;97.30;;;;;;5030504;28;20084;-57
2023/07/02 11:31:51;;;;;;;9.93;3.15;;;18.60;96.80;;;;;;5029401;28;20072;-57
2023/07/02 11:34:20;;;;;;;7.63;3.13;;;18.80;96.20;;;;;;4997731;28;20587;-59
2023/07/02 11:36:46;;;;;;;10.30;3.00;;;18.80;96.80;;;;;;5027142;28;20047;-59
2023/07/02 11:39:12;;;;;;;9.02;3.47;;;18.70;96.50;;;;;;5014725;28;20127;-59
2023/07/02 11:41:47;;;;;;;11.57;3.10;;;18.60;96.60;;;;;;5024922;28;20121;-59
2023/07/02 11:44:13;;;;;;;11.27;3.78;;;19.00;97.00;;;;;;5007411;28;20029;-58
2023/07/02 11:46:39;;;;;;;10.00;3.28;;;19.40;96.70;;;;;;5021704;28;20502;-58
2023/07/02 11:49:04;;;;;;;9.77;3.10;;;19.80;95.80;;;;;;5028303;28;20041;-59
2023/07/02 11:51:31;;;;;;;8.88;3.53;;;20.10;95.80;;;;;;5024180;28;20092;-59
2023/07/02 11:53:57;;;;;;;10.23;3.60;;;19.90;94.70;;;;;;5017221;28;20485;-57
2023/07/02 11:56:23;;;;;;;9.82;3.33;;;19.60;94.60;;;;;;5027857;28;20048;-58
2023/07/02 11:58:49;;;;;;;11.25;3.20;;;19.20;94.20;;;;;;5034040;28;20044;-59
2023/07/02 12:01:15;;;;;;;8.75;3.50;;;19.00;95.30;;;;;;5027007;28;20041;-57
2023/07/02 12:03:41;;;;;;;8.38;2.92;;;18.80;95.10;;;;;;5026936;28;20168;-59
2023/07/02 12:06:06;;;;;;;8.07;2.85;;;18.60;95.10;;;;;;5026170;28;20060;-59
2023/07/02 12:08:32;;;;;;;7.32;3.78;;;18.60;94.40;;;;;;5029812;28;20032;-55
2023/07/02 12:10:58;;;;;;;9.02;3.25;;;18.70;94.50;;;;;;5023840;28;20091;-60
2023/07/02 12:13:23;;;;;;;9.38;4.40;;;18.50;94.40;;;;;;5008933;28;20044;-57
2023/07/02 12:15:51;;;;;;;8.57;3.30;;;18.70;94.90;;;;;;5017506;28;20091;-56
2023/07/02 12:18:16;;;;;;;9.02;3.38;;;18.80;95.70;;;;;;5019774;28;20083;-57
2023/07/02 12:20:42;;;;;;;10.63;3.95;;;19.00;95.70;;;;;;5023361;28;20123;-58
2023/07/02 12:23:10;;;;;;;8.55;3.92;;;18.70;95.00;;;;;;5019221;28;20064;-59
2023/07/02 12:25:36;;;;;;;10.55;4.15;;;18.50;94.80;;;;;;5025371;28;20120;-59
2023/07/02 12:28:05;;;;;;;11.18;3.55;;;18.70;95.80;;;;;;5009101;28;20120;-59
2023/07/02 12:30:32;;;;;;;11.05;3.95;;;18.40;96.10;;;;;;5006998;28;20127;-59
2023/07/02 12:32:58;;;;;;;12.45;3.97;;;18.30;96.60;;;;;;5025162;28;20115;-59
2023/07/02 12:35:24;;;;;;;11.85;4.43;;;18.40;96.90;;;;;;5005316;28;20423;-58
2023/07/02 12:37:51;;;;;;;10.18;4.28;;;18.50;96.90;;;;;;5018685;28;20041;-59